createdAt,value
2019-04-23T00:00:08.762Z,73.92
2019-04-23T00:01:14.842Z,74.02
2019-04-23T00:02:06.608Z,73.83
2019-04-23T00:03:18.752Z,74.21
2019-04-23T00:04:08.445Z,74.65
2019-04-23T00:05:01.782Z,74.65
2019-04-23T00:06:15.525Z,74.84
2019-04-23T00:07:15.767Z,74.88
2019-04-23T00:09:12.563Z,74.11
2019-04-23T00:10:13.926Z,73.92
2019-04-23T00:11:05.300Z,74.11
2019-04-23T00:12:12.676Z,74.30
2019-04-23T00:12:59.258Z,74.49
2019-04-23T00:14:08.449Z,74.49
2019-04-23T00:15:07.378Z,74.30
2019-04-23T00:16:12.887Z,74.37
2019-04-23T00:17:04.658Z,74.55
2019-04-23T00:18:09.658Z,74.78
2019-04-23T00:18:58.882Z,74.59
2019-04-23T00:20:11.183Z,74.49
2019-04-23T00:21:11.253Z,74.55
2019-04-23T00:22:07.292Z,75.07
2019-04-23T00:23:07.804Z,74.88
2019-04-23T00:24:12.076Z,74.65
2019-04-23T00:26:24.041Z,75.13
2019-04-23T00:27:19.170Z,75.70
2019-04-23T00:29:18.966Z,75.60
2019-04-23T00:31:07.889Z,75.32
2019-04-23T00:32:10.087Z,75.60
2019-04-23T00:33:05.606Z,75.42
2019-04-23T00:34:01.048Z,75.42
2019-04-23T00:35:05.971Z,75.13
2019-04-23T00:36:03.164Z,75.70
2019-04-23T00:37:11.274Z,75.60
2019-04-23T00:38:12.084Z,76.46
2019-04-23T00:39:01.267Z,76.56
2019-04-23T00:40:03.246Z,76.18
2019-04-23T00:41:02.948Z,75.98
2019-04-23T00:42:08.280Z,76.46
2019-04-23T00:43:03.811Z,76.37
2019-04-23T00:45:00.231Z,76.65
2019-04-23T00:45:59.702Z,76.56
2019-04-23T00:47:00.985Z,76.18
2019-04-23T00:48:12.733Z,76.18
2019-04-23T00:49:06.092Z,75.98
2019-04-23T00:50:19.335Z,76.37
2019-04-23T00:50:58.226Z,76.46
2019-04-23T00:52:05.898Z,76.75
2019-04-23T00:53:04.586Z,76.56
2019-04-23T00:54:06.440Z,76.84
2019-04-23T00:56:20.637Z,76.75
2019-04-23T00:57:07.388Z,76.56
2019-04-23T00:58:10.396Z,76.37
2019-04-23T00:59:00.419Z,75.79
2019-04-23T01:00:13.913Z,76.27
2019-04-23T01:01:02.481Z,76.18
2019-04-23T01:02:03.898Z,76.37
2019-04-23T01:03:05.885Z,76.46
2019-04-23T01:04:18.518Z,76.75
2019-04-23T01:06:21.060Z,76.37
2019-04-23T01:07:04.336Z,76.56
2019-04-23T01:08:07.074Z,76.18
2019-04-23T01:09:03.768Z,76.46
2019-04-23T01:10:10.223Z,76.46
2019-04-23T01:11:06.310Z,76.75
2019-04-23T01:12:09.328Z,77.03
2019-04-23T01:13:11.307Z,77.23
2019-04-23T01:14:04.852Z,77.13
2019-04-23T01:15:02.809Z,77.51
2019-04-23T01:16:05.429Z,77.13
2019-04-23T01:17:08.440Z,77.03
2019-04-23T01:19:24.511Z,77.13
2019-04-23T01:20:01.674Z,77.89
2019-04-23T01:20:53.567Z,77.89
2019-04-23T01:21:43.295Z,77.89
2019-04-23T01:22:42.225Z,77.80
2019-04-23T01:23:51.888Z,77.03
2019-04-23T01:24:44.232Z,77.23
2019-04-23T01:25:53.759Z,78.18
2019-04-23T01:27:23.710Z,78.43
2019-04-23T01:28:11.031Z,78.62
2019-04-23T01:29:06.738Z,78.91
2019-04-23T01:30:09.643Z,78.23
2019-04-23T01:31:10.224Z,78.23
2019-04-23T01:32:13.401Z,77.32
2019-04-23T01:33:11.063Z,76.84
2019-04-23T01:34:08.405Z,76.75
2019-04-23T01:35:12.789Z,77.03
2019-04-23T01:36:20.627Z,76.75
2019-04-23T01:37:15.176Z,77.23
2019-04-23T01:38:04.512Z,77.32
2019-04-23T01:39:23.198Z,77.51
2019-04-23T01:40:16.768Z,77.32
2019-04-23T01:41:07.857Z,77.03
2019-04-23T01:42:12.959Z,77.42
2019-04-23T01:43:03.597Z,77.13
2019-04-23T01:44:06.933Z,77.19
2019-04-23T01:45:16.223Z,77.67
2019-04-23T01:46:09.836Z,77.86
2019-04-23T01:47:09.620Z,78.33
2019-04-23T01:48:22.455Z,78.05
2019-04-23T01:49:07.109Z,78.14
2019-04-23T01:51:04.077Z,78.33
2019-04-23T01:52:08.206Z,78.33
2019-04-23T01:54:06.924Z,78.33
2019-04-23T01:55:09.650Z,77.67
2019-04-23T01:56:14.422Z,77.57
2019-04-23T01:57:11.472Z,77.67
2019-04-23T01:58:25.886Z,77.67
2019-04-23T01:59:16.143Z,77.19
2019-04-23T02:00:14.209Z,77.38
2019-04-23T02:01:06.519Z,77.28
2019-04-23T02:02:05.057Z,77.00
2019-04-23T02:03:12.200Z,77.09
2019-04-23T02:04:11.277Z,77.67
2019-04-23T02:06:07.457Z,77.38
2019-04-23T02:07:06.563Z,77.76
2019-04-23T02:09:05.284Z,77.19
2019-04-23T02:10:34.438Z,77.38
2019-04-23T02:12:04.475Z,77.28
2019-04-23T02:13:12.089Z,77.19
2019-04-23T02:14:24.846Z,77.67
2019-04-23T02:15:13.852Z,78.14
2019-04-23T02:16:05.112Z,77.95
2019-04-23T02:17:10.238Z,78.14
2019-04-23T02:20:09.179Z,78.43
2019-04-23T02:21:07.011Z,78.23
2019-04-23T02:22:05.184Z,78.14
2019-04-23T02:23:11.621Z,78.23
2019-04-23T02:24:06.861Z,78.23
2019-04-23T02:25:13.377Z,78.14
2019-04-23T02:26:04.782Z,77.47
2019-04-23T02:27:05.630Z,77.09
2019-04-23T02:28:10.727Z,77.38
2019-04-23T02:29:26.603Z,77.00
2019-04-23T02:31:25.399Z,77.00
2019-04-23T02:35:17.012Z,77.47
2019-04-23T02:36:07.382Z,77.47
2019-04-23T02:37:15.050Z,77.28
2019-04-23T02:39:01.001Z,77.09
2019-04-23T02:40:23.648Z,77.47
2019-04-23T02:41:20.352Z,77.38
2019-04-23T02:42:41.131Z,77.57
2019-04-23T02:43:13.049Z,77.38
2019-04-23T02:45:09.389Z,77.00
2019-04-23T02:46:05.481Z,77.00
2019-04-23T02:48:19.931Z,77.00
2019-04-23T02:50:34.919Z,77.09
2019-04-23T02:51:10.723Z,77.28
2019-04-23T02:52:16.063Z,77.28
2019-04-23T02:53:20.071Z,77.15
2019-04-23T02:56:16.140Z,77.25
2019-04-23T02:57:13.324Z,76.96
2019-04-23T02:58:19.168Z,76.67
2019-04-23T02:59:21.412Z,76.48
2019-04-23T03:00:18.585Z,77.06
2019-04-23T03:02:30.834Z,76.96
2019-04-23T03:03:22.533Z,77.25
2019-04-23T03:04:19.762Z,77.06
2019-04-23T03:05:11.199Z,76.77
2019-04-23T03:07:15.590Z,76.01
2019-04-23T03:08:06.274Z,76.20
2019-04-23T03:09:13.381Z,75.95
2019-04-23T03:12:18.479Z,75.76
2019-04-23T03:13:19.365Z,75.53
2019-04-23T03:14:18.560Z,75.34
2019-04-23T03:15:21.390Z,75.24
2019-04-23T03:16:21.832Z,75.43
2019-04-23T03:17:11.143Z,75.62
2019-04-23T03:19:09.788Z,75.91
2019-04-23T03:20:15.681Z,75.72
2019-04-23T03:26:34.823Z,76.10
2019-04-23T03:28:23.181Z,75.72
2019-04-23T03:32:51.801Z,75.53
2019-04-23T03:34:30.247Z,75.62
2019-04-23T03:35:17.778Z,75.72
2019-04-23T03:37:26.462Z,75.24
2019-04-23T03:38:20.499Z,75.72
2019-04-23T03:38:55.823Z,75.72
2019-04-23T03:42:12.032Z,75.34
2019-04-23T03:44:02.137Z,75.53
2019-04-23T03:45:16.775Z,76.01
2019-04-23T03:46:15.686Z,75.81
2019-04-23T03:47:10.803Z,75.53
2019-04-23T03:48:14.892Z,74.86
2019-04-23T03:50:15.318Z,75.62
2019-04-23T03:51:13.772Z,76.20
2019-04-23T03:53:22.558Z,76.20
2019-04-23T03:55:10.341Z,76.10
2019-04-23T03:55:23.161Z,76.10
2019-04-23T03:56:14.544Z,76.48
2019-04-23T03:57:18.529Z,76.67
2019-04-23T03:58:12.193Z,76.82
2019-04-23T03:59:10.713Z,76.86
2019-04-23T04:00:12.496Z,76.67
2019-04-23T04:01:16.232Z,76.92
2019-04-23T04:03:27.577Z,76.92
2019-04-23T04:05:17.762Z,77.01
2019-04-23T04:10:06.716Z,75.53
2019-04-23T04:11:14.543Z,75.72
2019-04-23T04:12:17.331Z,75.91
2019-04-23T04:13:15.773Z,75.43
2019-04-23T04:14:21.307Z,75.72
2019-04-23T04:15:18.306Z,75.91
2019-04-23T04:19:22.594Z,76.92
2019-04-23T04:20:15.222Z,77.20
2019-04-23T04:21:14.491Z,76.82
2019-04-23T04:22:20.717Z,76.73
2019-04-23T04:23:13.536Z,76.57
2019-04-23T04:24:31.279Z,76.48
2019-04-23T04:25:14.363Z,76.01
2019-04-23T04:26:17.866Z,76.16
2019-04-23T04:27:12.891Z,75.96
2019-04-23T04:29:30.326Z,75.24
2019-04-23T04:30:14.983Z,75.24
2019-04-23T04:31:16.351Z,75.72
2019-04-23T04:32:15.093Z,75.15
2019-04-23T04:33:15.138Z,75.15
2019-04-23T04:34:33.017Z,75.34
2019-04-23T04:35:16.130Z,74.86
2019-04-23T04:36:13.955Z,74.86
2019-04-23T04:38:30.233Z,74.77
2019-04-23T04:39:03.326Z,75.15
2019-04-23T04:41:05.504Z,74.57
2019-04-23T04:42:14.869Z,74.19
2019-04-23T04:45:14.139Z,74.01
2019-04-23T04:47:09.818Z,74.67
2019-04-23T04:48:00.489Z,74.57
2019-04-23T04:50:14.855Z,74.38
2019-04-23T04:51:19.426Z,74.38
2019-04-23T04:54:21.598Z,74.48
2019-04-23T04:56:14.331Z,73.72
2019-04-23T04:57:13.101Z,73.72
2019-04-23T04:58:07.219Z,73.05
2019-04-23T05:00:13.363Z,72.67
2019-04-23T05:01:13.860Z,72.48
2019-04-23T05:02:16.221Z,72.51
2019-04-23T05:03:22.209Z,72.32
2019-04-23T05:04:18.211Z,72.57
2019-04-23T05:05:47.751Z,72.48
2019-04-23T05:06:24.478Z,71.81
2019-04-23T05:07:09.340Z,72.38
2019-04-23T05:08:09.232Z,71.94
2019-04-23T05:09:16.995Z,72.42
2019-04-23T05:12:17.047Z,70.98
2019-04-23T05:13:22.729Z,70.98
2019-04-23T05:14:26.186Z,70.98
2019-04-23T05:16:07.718Z,69.68
2019-04-23T05:17:08.618Z,69.78
2019-04-23T05:19:19.846Z,68.44
2019-04-23T05:20:05.127Z,67.14
2019-04-23T05:24:08.943Z,60.77
2019-04-23T05:24:57.109Z,59.45
2019-04-23T05:26:01.102Z,58.53
2019-04-23T05:27:05.542Z,56.81
2019-04-23T05:30:07.852Z,56.04
2019-04-23T05:31:08.641Z,56.49
2019-04-23T05:31:58.218Z,56.10
2019-04-23T05:33:05.659Z,56.77
2019-04-23T05:34:04.498Z,56.42
2019-04-23T05:35:07.430Z,55.68
2019-04-23T05:36:12.653Z,54.27
2019-04-23T05:37:01.880Z,54.03
2019-04-23T05:38:29.138Z,54.53
2019-04-23T05:39:12.084Z,54.53
2019-04-23T05:40:08.511Z,54.32
2019-04-23T05:41:10.378Z,54.41
2019-04-23T05:42:01.474Z,54.60
2019-04-23T05:43:08.181Z,54.99
2019-04-23T05:44:06.911Z,55.18
2019-04-23T05:46:09.623Z,54.89
2019-04-23T05:47:11.489Z,53.96
2019-04-23T05:48:07.067Z,53.77
2019-04-23T05:49:07.623Z,53.38
2019-04-23T05:50:15.564Z,53.09
2019-04-23T05:51:06.083Z,53.55
2019-04-23T05:53:07.317Z,52.93
2019-04-23T05:54:01.816Z,51.87
2019-04-23T05:55:01.614Z,51.51
2019-04-23T05:56:01.827Z,50.75
2019-04-23T05:58:05.169Z,51.04
2019-04-23T06:00:04.026Z,51.87
2019-04-23T06:01:05.840Z,51.97
2019-04-23T06:02:07.552Z,51.30
2019-04-23T06:03:04.914Z,51.68
2019-04-23T06:05:05.980Z,51.20
2019-04-23T06:06:02.992Z,50.94
2019-04-23T06:07:16.713Z,50.46
2019-04-23T06:08:05.626Z,49.88
2019-04-23T06:11:02.527Z,49.02
2019-04-23T06:12:02.866Z,49.67
2019-04-23T06:13:03.059Z,50.46
2019-04-23T06:14:09.761Z,50.27
2019-04-23T06:14:57.607Z,49.60
2019-04-23T06:15:57.799Z,49.88
2019-04-23T06:17:09.374Z,49.67
2019-04-23T06:20:03.811Z,49.62
2019-04-23T06:21:02.987Z,48.66
2019-04-23T06:22:07.463Z,48.74
2019-04-23T06:23:09.294Z,49.60
2019-04-23T06:24:10.403Z,49.69
2019-04-23T06:25:00.955Z,49.60
2019-04-23T06:26:22.507Z,48.83
2019-04-23T06:28:01.584Z,48.95
2019-04-23T06:29:07.099Z,49.05
2019-04-23T06:29:59.486Z,49.05
2019-04-23T06:31:02.384Z,47.89
2019-04-23T06:32:14.921Z,48.09
2019-04-23T06:32:59.279Z,48.11
2019-04-23T06:34:04.155Z,48.11
2019-04-23T06:34:56.585Z,47.71
2019-04-23T06:36:05.543Z,46.96
2019-04-23T06:36:58.887Z,46.98
2019-04-23T06:38:28.111Z,46.02
2019-04-23T06:38:57.228Z,47.13
2019-04-23T06:40:00.393Z,48.07
2019-04-23T06:41:06.759Z,49.69
2019-04-23T06:42:00.368Z,49.12
2019-04-23T06:43:02.735Z,48.74
2019-04-23T06:44:08.828Z,48.74
2019-04-23T06:45:59.385Z,49.31
2019-04-23T06:48:01.650Z,48.44
2019-04-23T06:49:02.109Z,48.76
2019-04-23T06:51:04.236Z,48.11
2019-04-23T06:52:54.605Z,47.71
2019-04-23T06:53:56.763Z,48.16
2019-04-23T06:55:01.386Z,48.07
2019-04-23T06:56:08.066Z,48.28
2019-04-23T06:57:09.070Z,48.09
2019-04-23T06:58:06.351Z,47.05
2019-04-23T06:59:00.818Z,46.94
2019-04-23T07:00:02.422Z,48.18
2019-04-23T07:01:03.346Z,48.09
2019-04-23T07:02:06.278Z,48.47
2019-04-23T07:02:59.705Z,48.49
2019-04-23T07:06:11.449Z,45.49
2019-04-23T07:07:29.715Z,44.07
2019-04-23T07:09:07.831Z,44.43
2019-04-23T07:09:57.936Z,44.60
2019-04-23T07:11:08.096Z,44.99
2019-04-23T07:11:59.048Z,44.60
2019-04-23T07:13:03.157Z,44.89
2019-04-23T07:13:58.654Z,44.62
2019-04-23T07:15:11.653Z,44.41
2019-04-23T07:15:58.732Z,44.79
2019-04-23T07:16:57.091Z,45.15
2019-04-23T07:17:54.295Z,45.73
2019-04-23T07:19:04.623Z,46.50
2019-04-23T07:20:02.208Z,46.31
2019-04-23T07:21:00.652Z,45.54
2019-04-23T07:22:12.227Z,45.54
2019-04-23T07:23:04.959Z,46.28
2019-04-23T07:25:00.072Z,46.38
2019-04-23T07:26:06.103Z,46.94
2019-04-23T07:26:55.905Z,46.86
2019-04-23T07:27:59.027Z,47.15
2019-04-23T07:30:03.605Z,46.41
2019-04-23T07:31:02.174Z,45.83
2019-04-23T07:31:59.312Z,46.23
2019-04-23T07:32:56.648Z,45.64
2019-04-23T07:34:01.161Z,45.45
2019-04-23T07:36:00.510Z,46.38
2019-04-23T07:37:16.096Z,47.05
2019-04-23T07:38:11.070Z,46.96
2019-04-23T07:39:20.567Z,46.69
2019-04-23T07:40:19.663Z,46.04
2019-04-23T07:41:14.520Z,44.79
2019-04-23T07:42:09.367Z,45.15
2019-04-23T07:43:00.024Z,45.66
2019-04-23T07:44:07.798Z,44.89
2019-04-23T07:46:08.154Z,44.70
2019-04-23T07:47:13.118Z,44.53
2019-04-23T07:48:08.103Z,44.51
2019-04-23T07:48:56.721Z,44.70
2019-04-23T07:50:09.827Z,44.53
2019-04-23T07:50:55.163Z,44.65
2019-04-23T07:52:04.808Z,43.68
2019-04-23T07:53:06.771Z,43.08
2019-04-23T07:54:16.304Z,43.68
2019-04-23T07:55:02.289Z,43.85
2019-04-23T07:56:03.796Z,43.97
2019-04-23T07:58:06.508Z,43.76
2019-04-23T07:59:05.292Z,44.24
2019-04-23T08:00:02.581Z,43.85
2019-04-23T08:00:58.204Z,44.51
2019-04-23T08:02:12.843Z,45.54
2019-04-23T08:03:08.579Z,46.04
2019-04-23T08:04:04.588Z,45.45
2019-04-23T08:05:58.456Z,45.56
2019-04-23T08:07:00.795Z,45.68
2019-04-23T08:08:56.617Z,44.38
2019-04-23T08:10:00.254Z,43.80
2019-04-23T08:11:16.082Z,43.78
2019-04-23T08:11:56.281Z,43.57
2019-04-23T08:13:00.952Z,43.47
2019-04-23T08:13:58.261Z,44.07
2019-04-23T08:14:59.844Z,44.14
2019-04-23T08:16:07.043Z,44.31
2019-04-23T08:17:00.691Z,44.91
2019-04-23T08:17:59.010Z,44.96
2019-04-23T08:20:03.021Z,42.84
2019-04-23T08:20:57.097Z,43.80
2019-04-23T08:22:06.627Z,43.88
2019-04-23T08:23:03.909Z,44.05
2019-04-23T08:24:01.927Z,44.43
2019-04-23T08:25:08.435Z,44.89
2019-04-23T08:26:02.402Z,44.82
2019-04-23T08:26:59.047Z,44.84
2019-04-23T08:27:59.386Z,44.55
2019-04-23T08:29:05.872Z,43.80
2019-04-23T08:29:55.702Z,43.41
2019-04-23T08:31:00.792Z,43.51
2019-04-23T08:32:00.249Z,43.61
2019-04-23T08:32:58.827Z,43.41
2019-04-23T08:34:15.009Z,43.37
2019-04-23T08:36:09.486Z,44.24
2019-04-23T08:37:07.219Z,44.14
2019-04-23T08:38:11.978Z,44.34
2019-04-23T08:39:00.053Z,44.17
2019-04-23T08:39:52.131Z,44.28
2019-04-23T08:41:14.224Z,43.92
2019-04-23T08:42:21.546Z,43.05
2019-04-23T08:43:07.504Z,42.26
2019-04-23T08:44:06.909Z,42.55
2019-04-23T08:45:58.382Z,43.63
2019-04-23T08:47:03.315Z,42.76
2019-04-23T08:48:07.895Z,42.36
2019-04-23T08:49:06.500Z,42.84
2019-04-23T08:51:03.493Z,42.65
2019-04-23T08:52:10.167Z,42.26
2019-04-23T08:53:03.748Z,42.33
2019-04-23T08:53:55.503Z,43.30
2019-04-23T08:57:02.709Z,42.93
2019-04-23T08:57:57.309Z,43.65
2019-04-23T08:58:59.517Z,42.71
2019-04-23T08:59:58.769Z,40.90
2019-04-23T09:01:05.779Z,40.34
2019-04-23T09:02:15.946Z,40.70
2019-04-23T09:03:02.391Z,40.11
2019-04-23T09:03:56.038Z,40.99
2019-04-23T09:05:00.763Z,41.28
2019-04-23T09:05:58.006Z,40.57
2019-04-23T09:07:04.499Z,40.94
2019-04-23T09:08:56.838Z,42.09
2019-04-23T09:11:54.282Z,42.02
2019-04-23T09:13:10.145Z,42.25
2019-04-23T09:13:55.639Z,40.97
2019-04-23T09:15:01.618Z,40.19
2019-04-23T09:15:58.222Z,41.03
2019-04-23T09:17:03.494Z,42.16
2019-04-23T09:19:07.784Z,42.57
2019-04-23T09:20:11.884Z,42.79
2019-04-23T09:20:55.243Z,42.03
2019-04-23T09:22:00.535Z,41.92
2019-04-23T09:22:50.400Z,42.21
2019-04-23T09:25:02.638Z,40.30
2019-04-23T09:27:00.128Z,40.95
2019-04-23T09:28:05.269Z,41.24
2019-04-23T09:28:57.995Z,41.72
2019-04-23T09:30:00.662Z,41.24
2019-04-23T09:31:04.011Z,41.51
2019-04-23T09:32:13.550Z,42.30
2019-04-23T09:33:00.724Z,41.05
2019-04-23T09:33:58.037Z,40.88
2019-04-23T09:35:52.525Z,40.19
2019-04-23T09:38:59.805Z,40.20
2019-04-23T09:40:04.826Z,40.37
2019-04-23T09:41:53.635Z,39.99
2019-04-23T09:43:00.633Z,41.05
2019-04-23T09:44:09.454Z,40.19
2019-04-23T09:45:56.358Z,39.94
2019-04-23T09:47:00.712Z,39.28
2019-04-23T09:48:03.580Z,39.28
2019-04-23T09:49:20.831Z,39.36
2019-04-23T09:50:01.697Z,39.74
2019-04-23T09:50:54.138Z,40.22
2019-04-23T09:52:00.746Z,40.12
2019-04-23T09:53:11.532Z,39.74
2019-04-23T09:53:58.078Z,40.03
2019-04-23T09:55:04.664Z,39.86
2019-04-23T09:56:10.348Z,39.66
2019-04-23T09:56:52.685Z,39.06
2019-04-23T09:59:02.358Z,40.20
2019-04-23T09:59:59.150Z,39.94
2019-04-23T10:00:54.486Z,39.95
2019-04-23T10:01:50.145Z,40.07
2019-04-23T10:02:47.334Z,38.46
2019-04-23T10:03:40.587Z,37.85
2019-04-23T10:04:44.930Z,38.62
2019-04-23T10:05:39.989Z,38.31
2019-04-23T10:06:33.354Z,38.89
2019-04-23T10:07:40.572Z,38.89
2019-04-23T10:08:36.323Z,38.95
2019-04-23T10:09:30.094Z,39.24
2019-04-23T10:10:30.264Z,40.20
2019-04-23T10:11:30.535Z,39.79
2019-04-23T10:12:30.238Z,39.91
2019-04-23T10:13:29.818Z,39.24
2019-04-23T10:14:30.421Z,39.26
2019-04-23T10:15:36.206Z,39.26
2019-04-23T10:16:33.471Z,38.68
2019-04-23T10:17:29.537Z,38.99
2019-04-23T10:18:30.927Z,38.62
2019-04-23T10:19:30.785Z,38.45
2019-04-23T10:20:30.876Z,37.63
2019-04-23T10:21:31.059Z,38.58
2019-04-23T10:22:32.248Z,39.47
2019-04-23T10:23:29.622Z,39.26
2019-04-23T10:24:30.846Z,38.99
2019-04-23T10:25:30.165Z,38.43
2019-04-23T10:26:30.277Z,38.35
2019-04-23T10:27:29.535Z,38.18
2019-04-23T10:28:29.696Z,36.40
2019-04-23T10:29:29.913Z,37.73
2019-04-23T10:30:30.947Z,38.39
2019-04-23T10:31:29.309Z,39.37
2019-04-23T10:32:29.808Z,38.70
2019-04-23T10:33:29.641Z,38.51
2019-04-23T10:34:30.493Z,38.21
2019-04-23T10:35:39.068Z,38.25
2019-04-23T10:36:31.685Z,38.18
2019-04-23T10:37:36.763Z,36.34
2019-04-23T10:38:30.738Z,36.69
2019-04-23T10:39:35.294Z,37.63
2019-04-23T10:40:33.867Z,38.02
2019-04-23T10:41:30.600Z,37.54
2019-04-23T10:42:32.070Z,38.68
2019-04-23T10:43:31.491Z,38.97
2019-04-23T10:44:30.641Z,38.97
2019-04-23T10:45:44.719Z,38.31
2019-04-23T10:46:48.886Z,38.33
2019-04-23T10:48:03.728Z,38.21
2019-04-23T10:49:00.616Z,38.21
2019-04-23T10:50:01.078Z,37.85
2019-04-23T10:51:59.613Z,37.23
2019-04-23T10:53:05.062Z,38.41
2019-04-23T10:54:04.806Z,38.91
2019-04-23T10:55:03.248Z,38.91
2019-04-23T10:57:56.343Z,37.12
2019-04-23T10:58:54.187Z,36.40
2019-04-23T10:59:53.569Z,37.25
2019-04-23T11:01:07.320Z,38.08
2019-04-23T11:02:22.234Z,38.66
2019-04-23T11:03:00.615Z,38.99
2019-04-23T11:04:11.907Z,38.12
2019-04-23T11:04:57.326Z,38.49
2019-04-23T11:06:00.183Z,38.12
2019-04-23T11:07:07.262Z,37.56
2019-04-23T11:07:47.064Z,37.58
2019-04-23T11:08:50.132Z,37.17
2019-04-23T11:11:00.162Z,37.27
2019-04-23T11:12:01.762Z,37.46
2019-04-23T11:14:01.232Z,38.23
2019-04-23T11:15:10.526Z,37.40
2019-04-23T11:20:58.675Z,37.79
2019-04-23T11:22:05.848Z,37.10
2019-04-23T11:22:51.698Z,37.38
2019-04-23T11:24:02.058Z,37.37
2019-04-23T11:25:23.630Z,37.10
2019-04-23T11:25:48.636Z,37.02
2019-04-23T11:27:00.469Z,37.38
2019-04-23T11:28:02.959Z,36.59
2019-04-23T11:28:51.899Z,38.21
2019-04-23T11:30:00.509Z,37.95
2019-04-23T11:31:09.063Z,38.23
2019-04-23T11:32:06.769Z,37.87
2019-04-23T11:34:01.107Z,37.65
2019-04-23T11:35:14.292Z,37.83
2019-04-23T11:36:18.914Z,38.04
2019-04-23T11:38:58.728Z,36.88
2019-04-23T11:40:01.646Z,37.29
2019-04-23T11:40:48.990Z,37.10
2019-04-23T11:42:26.259Z,38.08
2019-04-23T11:43:14.318Z,37.34
2019-04-23T11:43:54.462Z,36.78
2019-04-23T11:44:56.387Z,36.30
2019-04-23T11:51:26.789Z,37.38
2019-04-23T11:52:56.909Z,36.82
2019-04-23T11:54:01.541Z,36.72
2019-04-23T11:55:00.955Z,37.02
2019-04-23T11:57:14.220Z,36.36
2019-04-23T11:58:08.408Z,35.95
2019-04-23T11:58:52.456Z,36.42
2019-04-23T12:01:02.231Z,37.19
2019-04-23T12:02:07.343Z,37.02
2019-04-23T12:04:05.425Z,36.34
2019-04-23T12:05:02.333Z,36.24
2019-04-23T12:06:00.298Z,36.63
2019-04-23T12:06:59.740Z,37.52
2019-04-23T12:08:03.797Z,36.47
2019-04-23T12:09:02.911Z,35.70
2019-04-23T12:11:24.172Z,35.95
2019-04-23T12:12:59.711Z,37.70
2019-04-23T12:14:04.237Z,36.63
2019-04-23T12:14:51.292Z,36.61
2019-04-23T12:15:53.935Z,37.19
2019-04-23T12:17:08.036Z,37.21
2019-04-23T12:19:19.310Z,37.40
2019-04-23T12:20:21.412Z,37.12
2019-04-23T12:20:52.749Z,37.67
2019-04-23T12:22:04.664Z,37.70
2019-04-23T12:24:15.681Z,37.27
2019-04-23T12:25:08.504Z,37.50
2019-04-23T12:26:03.125Z,36.63
2019-04-23T12:27:00.413Z,37.10
2019-04-23T12:27:44.058Z,37.21
2019-04-23T12:28:57.708Z,37.27
2019-04-23T12:29:55.349Z,37.67
2019-04-23T12:30:57.309Z,37.67
2019-04-23T12:32:08.465Z,37.60
2019-04-23T12:33:10.587Z,37.02
2019-04-23T12:34:00.746Z,37.70
2019-04-23T12:35:51.534Z,37.50
2019-04-23T12:36:50.943Z,37.40
2019-04-23T12:38:58.129Z,37.13
2019-04-23T12:40:01.546Z,36.76
2019-04-23T12:42:01.838Z,36.49
2019-04-23T12:43:12.694Z,35.88
2019-04-23T12:43:51.642Z,36.71
2019-04-23T12:45:46.856Z,38.28
2019-04-23T12:47:04.872Z,37.67
2019-04-23T12:49:07.034Z,38.33
2019-04-23T12:50:31.180Z,38.18
2019-04-23T12:51:12.667Z,37.70
2019-04-23T12:51:55.502Z,37.58
2019-04-23T12:53:07.081Z,38.12
2019-04-23T12:53:49.339Z,37.34
2019-04-23T12:55:15.314Z,37.15
2019-04-23T12:55:50.559Z,37.02
2019-04-23T12:57:50.752Z,38.54
2019-04-23T12:58:46.484Z,38.81
2019-04-23T12:59:58.445Z,38.83
2019-04-23T13:00:45.573Z,38.45
2019-04-23T13:01:55.909Z,38.28
2019-04-23T13:02:58.927Z,38.28
2019-04-23T13:03:49.194Z,38.23
2019-04-23T13:04:51.723Z,38.83
2019-04-23T13:05:42.171Z,38.46
2019-04-23T13:06:50.756Z,38.45
2019-04-23T13:07:53.944Z,38.74
2019-04-23T13:08:55.520Z,39.03
2019-04-23T13:10:01.605Z,39.32
2019-04-23T13:10:50.137Z,38.54
2019-04-23T13:12:20.224Z,38.93
2019-04-23T13:13:01.454Z,38.85
2019-04-23T13:13:58.730Z,38.78
2019-04-23T13:14:57.334Z,38.00
2019-04-23T13:15:51.875Z,38.21
2019-04-23T13:17:01.869Z,37.44
2019-04-23T13:18:50.094Z,37.85
2019-04-23T13:20:00.190Z,37.38
2019-04-23T13:20:53.953Z,36.32
2019-04-23T13:23:49.416Z,38.33
2019-04-23T13:24:55.296Z,38.83
2019-04-23T13:25:55.830Z,38.28
2019-04-23T13:26:56.081Z,38.54
2019-04-23T13:28:02.717Z,39.04
2019-04-23T13:28:51.023Z,38.76
2019-04-23T13:30:00.304Z,38.56
2019-04-23T13:31:50.229Z,37.81
2019-04-23T13:33:02.672Z,38.10
2019-04-23T13:35:12.851Z,38.48
2019-04-23T13:36:53.600Z,38.18
2019-04-23T13:38:47.298Z,38.48
2019-04-23T13:39:54.080Z,37.87
2019-04-23T13:41:54.053Z,38.39
2019-04-23T13:43:02.894Z,38.39
2019-04-23T13:44:00.178Z,39.24
2019-04-23T13:44:55.911Z,39.45
2019-04-23T13:47:00.805Z,38.25
2019-04-23T13:48:03.466Z,38.83
2019-04-23T13:48:48.971Z,39.03
2019-04-23T13:50:00.237Z,38.93
2019-04-23T13:51:54.994Z,38.95
2019-04-23T13:53:07.886Z,39.04
2019-04-23T13:53:53.630Z,39.03
2019-04-23T13:55:04.294Z,39.61
2019-04-23T13:55:53.023Z,39.95
2019-04-23T13:57:25.561Z,41.09
2019-04-23T13:58:07.430Z,40.94
2019-04-23T13:58:57.743Z,40.38
2019-04-23T13:59:52.336Z,39.51
2019-04-23T14:01:00.917Z,40.28
2019-04-23T14:01:46.838Z,39.70
2019-04-23T14:02:54.769Z,39.34
2019-04-23T14:04:11.959Z,39.22
2019-04-23T14:05:02.581Z,39.72
2019-04-23T14:06:01.792Z,38.97
2019-04-23T14:08:00.821Z,38.21
2019-04-23T14:10:08.411Z,38.46
2019-04-23T14:11:16.042Z,38.97
2019-04-23T14:11:46.676Z,38.48
2019-04-23T14:13:08.691Z,38.58
2019-04-23T14:14:00.044Z,38.21
2019-04-23T14:14:56.298Z,38.10
2019-04-23T14:16:13.830Z,39.04
2019-04-23T14:17:18.103Z,39.97
2019-04-23T14:18:11.030Z,41.69
2019-04-23T14:19:53.192Z,42.05
2019-04-23T14:20:55.408Z,42.52
2019-04-23T14:21:53.216Z,43.17
2019-04-23T14:23:08.271Z,44.13
2019-04-23T14:24:11.900Z,44.40
2019-04-23T14:26:10.890Z,44.04
2019-04-23T14:26:50.595Z,44.62
2019-04-23T14:27:56.342Z,44.32
2019-04-23T14:32:53.708Z,44.42
2019-04-23T14:35:04.255Z,44.62
2019-04-23T14:35:49.785Z,44.32
2019-04-23T14:36:57.767Z,44.32
2019-04-23T14:38:11.323Z,44.40
2019-04-23T14:39:16.309Z,44.69
2019-04-23T14:39:56.028Z,44.69
2019-04-23T14:41:06.150Z,44.49
2019-04-23T14:42:02.768Z,44.21
2019-04-23T14:43:03.564Z,44.59
2019-04-23T14:44:03.675Z,44.71
2019-04-23T14:45:02.701Z,45.20
2019-04-23T14:46:27.078Z,44.71
2019-04-23T14:46:58.283Z,44.79
2019-04-23T14:47:59.055Z,44.59
2019-04-23T14:50:18.671Z,45.73
2019-04-23T14:50:51.705Z,45.83
2019-04-23T14:52:02.384Z,44.79
2019-04-23T14:52:58.900Z,44.79
2019-04-23T14:53:48.460Z,44.98
2019-04-23T14:57:03.967Z,45.46
2019-04-23T14:58:06.384Z,46.04
2019-04-23T14:59:01.702Z,45.44
2019-04-23T14:59:54.024Z,45.83
2019-04-23T15:01:06.976Z,45.83
2019-04-23T15:01:54.935Z,46.01
2019-04-23T15:02:59.609Z,45.83
2019-04-23T15:03:49.143Z,46.01
2019-04-23T15:04:56.438Z,45.73
2019-04-23T15:06:05.433Z,45.27
2019-04-23T15:07:51.346Z,45.53
2019-04-23T15:09:00.300Z,45.92
2019-04-23T15:11:06.701Z,46.50
2019-04-23T15:12:02.158Z,45.73
2019-04-23T15:12:51.828Z,46.33
2019-04-23T15:13:50.083Z,46.52
2019-04-23T15:15:02.871Z,45.44
2019-04-23T15:16:02.585Z,46.40
2019-04-23T15:16:54.699Z,46.62
2019-04-23T15:17:56.050Z,46.81
2019-04-23T15:19:02.683Z,45.73
2019-04-23T15:23:13.420Z,46.62
2019-04-23T15:24:00.320Z,46.50
2019-04-23T15:25:06.917Z,46.50
2019-04-23T15:26:22.608Z,46.78
2019-04-23T15:27:21.817Z,46.50
2019-04-23T15:28:32.642Z,47.15
2019-04-23T15:29:42.583Z,47.72
2019-04-23T15:30:59.138Z,47.63
2019-04-23T15:31:55.588Z,48.21
2019-04-23T15:33:03.914Z,48.40
2019-04-23T15:34:00.544Z,48.40
2019-04-23T15:34:57.496Z,48.18
2019-04-23T15:36:02.509Z,48.85
2019-04-23T15:37:01.017Z,48.97
2019-04-23T15:40:00.773Z,48.85
2019-04-23T15:40:53.975Z,49.05
2019-04-23T15:41:59.311Z,48.76
2019-04-23T15:43:00.397Z,49.05
2019-04-23T15:43:57.493Z,49.33
2019-04-23T15:44:55.249Z,49.72
2019-04-23T15:45:55.347Z,49.46
2019-04-23T15:46:57.001Z,49.17
2019-04-23T15:47:56.416Z,48.13
2019-04-23T15:49:05.642Z,47.92
2019-04-23T15:50:57.295Z,48.69
2019-04-23T15:52:58.830Z,48.79